Time;durP1;ratioP1;P1;durP2;ratioP2;P2;SDS_P1;SDS_P2;PMS_P1;PMS_P2;Temp;Humidity;BMP_temperature;BMP_pressure;BME280_temperature;BME280_humidity;BME280_pressure;Samples;Min_cycle;Max_cycle;Signal;HPM_P1;HPM_P2
2024/02/03 00:00:15;;;;;;;8.03;6.50;;;10.00;99.90;;;;;;5016553;28;20300;-68
2024/02/03 00:02:41;;;;;;;9.00;6.80;;;10.00;99.90;;;;;;5010649;28;20780;-68
2024/02/03 00:05:07;;;;;;;7.53;6.70;;;10.00;99.90;;;;;;5015113;28;20448;-69
2024/02/03 00:07:32;;;;;;;9.60;5.70;;;9.90;99.90;;;;;;5013350;28;20482;-68
2024/02/03 00:09:58;;;;;;;6.90;6.20;;;10.00;99.90;;;;;;5015580;28;20608;-68
2024/02/03 00:12:28;;;;;;;7.50;5.63;;;10.00;99.90;;;;;;5013834;28;20255;-68
2024/02/03 00:14:57;;;;;;;8.90;6.30;;;10.00;99.90;;;;;;5012092;28;20559;-68
2024/02/03 00:17:23;;;;;;;7.33;5.53;;;10.00;99.90;;;;;;5016704;28;20814;-68
2024/02/03 00:19:49;;;;;;;7.00;6.20;;;10.10;99.90;;;;;;5012611;28;20419;-68
2024/02/03 00:22:14;;;;;;;8.07;6.40;;;10.10;99.90;;;;;;5017967;28;20620;-68
2024/02/03 00:24:40;;;;;;;10.57;5.77;;;10.10;99.90;;;;;;5009983;28;20205;-68
2024/02/03 00:27:06;;;;;;;7.63;5.97;;;10.00;99.90;;;;;;5014047;28;20173;-68
2024/02/03 00:29:32;;;;;;;8.80;6.10;;;9.90;99.90;;;;;;5010767;28;20518;-68
2024/02/03 00:31:57;;;;;;;8.97;7.63;;;9.90;99.90;;;;;;5007009;28;20733;-68
2024/02/03 00:34:23;;;;;;;8.60;6.23;;;9.80;99.90;;;;;;5010009;28;20569;-68
2024/02/03 00:36:49;;;;;;;8.53;5.70;;;9.80;99.90;;;;;;5010607;28;20308;-68
2024/02/03 00:39:14;;;;;;;6.70;5.90;;;9.80;99.90;;;;;;5010853;28;20243;-68
2024/02/03 00:41:40;;;;;;;7.97;5.90;;;9.80;99.90;;;;;;5018496;28;20208;-68
2024/02/03 00:44:06;;;;;;;8.10;5.63;;;9.70;99.90;;;;;;5011245;28;20256;-68
2024/02/03 00:46:31;;;;;;;6.77;5.03;;;9.80;99.90;;;;;;5013558;28;20268;-68
2024/02/03 00:48:57;;;;;;;7.53;6.30;;;9.80;99.90;;;;;;5013073;28;20227;-68
2024/02/03 00:51:23;;;;;;;8.20;7.03;;;9.80;99.90;;;;;;5008211;28;20363;-68
2024/02/03 00:53:48;;;;;;;7.67;6.87;;;9.80;99.90;;;;;;5015056;28;20258;-68
2024/02/03 00:56:14;;;;;;;7.77;6.47;;;9.80;99.90;;;;;;5013362;28;20686;-68
2024/02/03 00:58:40;;;;;;;6.97;6.13;;;9.80;99.90;;;;;;5015217;28;20181;-68
2024/02/03 01:01:05;;;;;;;6.80;5.67;;;9.90;99.90;;;;;;5011207;28;20251;-68
2024/02/03 01:03:31;;;;;;;7.70;5.83;;;9.80;99.90;;;;;;5016831;28;20219;-69
2024/02/03 01:05:56;;;;;;;8.07;7.10;;;9.80;99.90;;;;;;5021665;28;20212;-69
2024/02/03 01:08:22;;;;;;;9.03;5.83;;;9.70;99.90;;;;;;5018729;28;20179;-69
2024/02/03 01:10:50;;;;;;;7.13;5.97;;;9.80;99.90;;;;;;5016413;28;20243;-69
2024/02/03 01:13:16;;;;;;;8.47;6.77;;;9.90;99.90;;;;;;5012375;28;20196;-69
2024/02/03 01:15:42;;;;;;;7.97;5.93;;;9.90;99.90;;;;;;5012288;28;20442;-69
2024/02/03 01:18:08;;;;;;;9.50;6.97;;;9.90;99.90;;;;;;5009673;28;20173;-69
2024/02/03 01:20:33;;;;;;;10.13;7.27;;;9.90;99.90;;;;;;5017820;28;20214;-68
2024/02/03 01:22:59;;;;;;;8.03;5.30;;;9.90;99.90;;;;;;5012569;28;20185;-69
2024/02/03 01:25:25;;;;;;;7.90;6.37;;;10.00;99.90;;;;;;5012618;28;20275;-68
2024/02/03 01:27:51;;;;;;;7.50;5.63;;;10.00;99.90;;;;;;5016503;28;20650;-68
2024/02/03 01:30:17;;;;;;;10.50;6.57;;;10.10;99.90;;;;;;5014350;28;20282;-69
2024/02/03 01:32:43;;;;;;;8.33;6.23;;;10.10;99.90;;;;;;5014958;28;20185;-68
2024/02/03 01:35:09;;;;;;;8.53;5.60;;;10.00;99.90;;;;;;5014768;28;20459;-68
2024/02/03 01:37:35;;;;;;;7.60;6.43;;;10.00;99.90;;;;;;5013132;28;20756;-68
2024/02/03 01:40:02;;;;;;;9.23;6.37;;;10.00;99.90;;;;;;5016412;28;20446;-68
2024/02/03 01:42:28;;;;;;;9.37;5.40;;;9.90;99.90;;;;;;5014779;28;20428;-68
2024/02/03 01:44:53;;;;;;;6.37;5.77;;;10.00;99.90;;;;;;5017359;28;20440;-68
2024/02/03 01:47:19;;;;;;;8.17;6.00;;;9.80;99.90;;;;;;5014574;28;20427;-68
2024/02/03 01:49:45;;;;;;;7.90;6.20;;;9.80;99.90;;;;;;5018901;28;20553;-68
2024/02/03 01:52:13;;;;;;;9.30;6.37;;;9.80;99.90;;;;;;5012587;28;20411;-68
2024/02/03 01:54:40;;;;;;;7.93;6.53;;;9.80;99.90;;;;;;5014037;28;20447;-69
2024/02/03 01:57:07;;;;;;;7.47;5.93;;;9.70;99.90;;;;;;5010741;28;20430;-69
2024/02/03 01:59:34;;;;;;;7.10;5.33;;;9.70;99.90;;;;;;5014071;28;20441;-69
2024/02/03 02:02:00;;;;;;;8.00;6.80;;;9.70;99.90;;;;;;5014090;28;20827;-68
2024/02/03 02:04:29;;;;;;;9.33;5.90;;;9.80;99.90;;;;;;5010215;28;20436;-68
2024/02/03 02:06:56;;;;;;;7.30;6.07;;;9.70;99.90;;;;;;5021221;28;20477;-68
2024/02/03 02:09:26;;;;;;;7.93;5.90;;;9.70;99.90;;;;;;5012784;28;20419;-68
2024/02/03 02:11:56;;;;;;;6.30;5.40;;;9.70;99.90;;;;;;5015501;28;20420;-69
2024/02/03 02:14:23;;;;;;;7.07;5.80;;;9.80;99.90;;;;;;5013039;28;20475;-69
2024/02/03 02:16:49;;;;;;;7.77;5.80;;;9.80;99.90;;;;;;5011404;28;20515;-68
2024/02/03 02:19:17;;;;;;;8.40;6.47;;;9.70;99.90;;;;;;5017410;28;20518;-68
2024/02/03 02:21:43;;;;;;;7.60;6.00;;;9.70;99.90;;;;;;5013984;28;20562;-68
2024/02/03 02:24:09;;;;;;;5.60;4.80;;;9.80;99.90;;;;;;5014237;28;20432;-68
2024/02/03 02:26:35;;;;;;;7.57;5.87;;;9.70;99.90;;;;;;5011869;28;20185;-68
2024/02/03 02:29:00;;;;;;;9.10;5.80;;;9.80;99.90;;;;;;5013718;28;20534;-69
2024/02/03 02:31:26;;;;;;;7.70;5.80;;;9.70;99.90;;;;;;5012539;28;20248;-68
2024/02/03 02:33:55;;;;;;;7.53;6.20;;;9.70;99.90;;;;;;5015712;28;20282;-68
2024/02/03 02:36:20;;;;;;;9.67;6.77;;;9.70;99.90;;;;;;5010124;28;20287;-68
2024/02/03 02:38:46;;;;;;;7.30;5.17;;;9.70;99.90;;;;;;5013771;28;20559;-68
2024/02/03 02:41:12;;;;;;;7.00;5.90;;;9.80;99.90;;;;;;5015112;28;20283;-68
2024/02/03 02:43:37;;;;;;;8.30;5.87;;;9.70;99.90;;;;;;5016123;28;20201;-69
2024/02/03 02:46:04;;;;;;;7.60;5.70;;;9.80;99.90;;;;;;5015066;28;20256;-68
2024/02/03 02:48:30;;;;;;;10.43;6.73;;;9.70;99.90;;;;;;5016706;28;20661;-69
2024/02/03 02:50:56;;;;;;;9.10;5.10;;;9.70;99.90;;;;;;5012064;28;20424;-68
2024/02/03 02:53:21;;;;;;;7.70;6.40;;;9.60;99.90;;;;;;5013877;28;20326;-68
2024/02/03 02:55:47;;;;;;;7.80;5.90;;;9.60;99.90;;;;;;5014176;28;20243;-69
2024/02/03 02:58:12;;;;;;;9.57;5.60;;;9.70;99.90;;;;;;5015736;28;20212;-68
2024/02/03 03:00:38;;;;;;;7.53;6.37;;;9.70;99.90;;;;;;5012569;28;20546;-69
2024/02/03 03:03:04;;;;;;;6.80;5.33;;;9.70;99.90;;;;;;5012136;28;20207;-68
2024/02/03 03:05:30;;;;;;;7.40;6.40;;;9.70;99.90;;;;;;5014255;28;20222;-68
2024/02/03 03:07:55;;;;;;;9.87;6.30;;;9.70;99.90;;;;;;5019454;28;20467;-69
2024/02/03 03:10:21;;;;;;;10.10;6.30;;;9.80;99.90;;;;;;5011783;28;20267;-68
2024/02/03 03:12:46;;;;;;;6.97;5.90;;;9.90;99.90;;;;;;5015839;28;20188;-68
2024/02/03 03:15:12;;;;;;;9.07;6.87;;;9.90;99.90;;;;;;5011623;28;20220;-68
2024/02/03 03:17:38;;;;;;;7.50;6.43;;;9.80;99.90;;;;;;5016742;28;20267;-68
2024/02/03 03:20:04;;;;;;;8.10;6.57;;;9.80;99.90;;;;;;5009390;28;20423;-68
2024/02/03 03:22:30;;;;;;;8.17;6.10;;;9.80;99.90;;;;;;5016260;28;20256;-68
2024/02/03 03:24:55;;;;;;;12.93;6.87;;;9.80;99.90;;;;;;5016002;28;20543;-69
2024/02/03 03:27:21;;;;;;;7.47;5.83;;;9.90;99.90;;;;;;5013243;28;20184;-68
2024/02/03 03:29:47;;;;;;;8.70;5.80;;;9.80;99.90;;;;;;5008707;28;20231;-68
2024/02/03 03:32:13;;;;;;;7.37;5.70;;;9.90;99.90;;;;;;5014332;28;20456;-68
2024/02/03 03:34:40;;;;;;;7.20;5.10;;;9.80;99.90;;;;;;5013178;28;20230;-69
2024/02/03 03:37:06;;;;;;;7.30;5.40;;;9.80;99.90;;;;;;5019609;28;20250;-68
2024/02/03 03:39:31;;;;;;;5.93;4.67;;;9.80;99.90;;;;;;5005915;28;21011;-68
2024/02/03 03:41:57;;;;;;;7.20;4.90;;;9.80;99.90;;;;;;5019101;28;20226;-68
2024/02/03 03:44:22;;;;;;;6.13;5.00;;;9.80;99.90;;;;;;5018367;28;20203;-68
2024/02/03 03:46:48;;;;;;;6.97;5.53;;;9.80;99.90;;;;;;5013245;28;20196;-68
2024/02/03 03:49:14;;;;;;;6.17;5.57;;;9.80;99.90;;;;;;5018092;28;20251;-68
2024/02/03 03:51:39;;;;;;;7.90;5.30;;;9.80;99.90;;;;;;5015838;28;20181;-69
2024/02/03 03:54:05;;;;;;;7.00;5.23;;;9.70;99.90;;;;;;5014113;28;20196;-68
2024/02/03 03:56:30;;;;;;;8.50;5.40;;;9.60;99.90;;;;;;5011460;28;20189;-68
2024/02/03 03:58:56;;;;;;;6.80;5.20;;;9.70;99.90;;;;;;5018076;28;20750;-69
2024/02/03 04:01:22;;;;;;;7.53;5.10;;;9.80;99.90;;;;;;5013352;28;20845;-69
2024/02/03 04:03:48;;;;;;;7.87;5.43;;;9.80;99.90;;;;;;5008570;28;20201;-68
2024/02/03 04:06:13;;;;;;;7.07;5.83;;;9.70;99.90;;;;;;5017608;28;20933;-69
2024/02/03 04:08:39;;;;;;;6.10;5.00;;;9.70;99.90;;;;;;5011198;28;20181;-69
2024/02/03 04:11:04;;;;;;;6.30;5.33;;;9.70;99.90;;;;;;5015662;28;20185;-68
2024/02/03 04:13:31;;;;;;;7.50;5.27;;;9.60;99.90;;;;;;5014091;28;23036;-68
2024/02/03 04:15:56;;;;;;;6.67;5.60;;;9.60;99.90;;;;;;5009073;28;20280;-68
2024/02/03 04:18:22;;;;;;;6.97;5.57;;;9.60;99.90;;;;;;5011688;28;21013;-68
2024/02/03 04:20:47;;;;;;;7.30;6.20;;;9.60;99.90;;;;;;5009530;28;20205;-68
2024/02/03 04:23:13;;;;;;;10.67;6.13;;;9.60;99.90;;;;;;5009516;28;20192;-68
2024/02/03 04:25:38;;;;;;;7.80;6.33;;;9.60;99.90;;;;;;5011943;28;20273;-69
2024/02/03 04:28:04;;;;;;;7.13;6.07;;;9.60;99.90;;;;;;5011451;28;20177;-68
2024/02/03 04:30:30;;;;;;;7.93;6.93;;;9.50;99.90;;;;;;5006503;28;20184;-69
2024/02/03 04:32:55;;;;;;;6.80;5.77;;;9.40;99.90;;;;;;5013971;28;20550;-68
2024/02/03 04:35:21;;;;;;;8.77;6.10;;;9.40;99.90;;;;;;5014355;28;20241;-68
2024/02/03 04:37:47;;;;;;;7.30;5.90;;;9.50;99.90;;;;;;5009224;28;20200;-68
2024/02/03 04:40:12;;;;;;;9.33;7.17;;;9.40;99.90;;;;;;5021275;28;20204;-69
2024/02/03 04:42:38;;;;;;;10.67;7.00;;;9.50;99.90;;;;;;5019295;28;20203;-68
2024/02/03 04:45:05;;;;;;;7.50;6.60;;;9.40;99.90;;;;;;5020521;28;20294;-68
2024/02/03 04:47:31;;;;;;;9.17;6.93;;;9.50;99.90;;;;;;5012057;28;20575;-68
2024/02/03 04:49:56;;;;;;;7.47;6.30;;;9.60;99.90;;;;;;5009940;28;20465;-68
2024/02/03 04:52:22;;;;;;;8.77;7.20;;;9.50;99.90;;;;;;5009287;28;20419;-68
2024/02/03 04:54:47;;;;;;;8.00;6.03;;;9.50;99.90;;;;;;5022190;28;20279;-68
2024/02/03 04:57:14;;;;;;;10.53;7.23;;;9.60;99.90;;;;;;5013505;28;20184;-68
2024/02/03 04:59:39;;;;;;;9.17;7.10;;;9.60;99.90;;;;;;5016153;28;20170;-68
2024/02/03 05:02:08;;;;;;;9.37;6.60;;;9.50;99.90;;;;;;5015552;28;20459;-69
2024/02/03 05:04:33;;;;;;;8.30;6.60;;;9.60;99.90;;;;;;5013228;28;20260;-68
2024/02/03 05:06:59;;;;;;;11.83;7.27;;;9.60;99.90;;;;;;5016823;28;20411;-68
2024/02/03 05:09:24;;;;;;;8.17;6.33;;;9.60;99.90;;;;;;5016400;28;20173;-68
2024/02/03 05:11:50;;;;;;;9.23;6.83;;;9.60;99.90;;;;;;5014347;28;20183;-69
2024/02/03 05:14:16;;;;;;;10.10;7.77;;;9.60;99.90;;;;;;5017924;28;20229;-68
2024/02/03 05:16:41;;;;;;;11.80;6.93;;;9.60;99.90;;;;;;5009443;28;20283;-68
2024/02/03 05:19:09;;;;;;;9.40;7.20;;;9.70;99.90;;;;;;5020409;28;20208;-68
2024/02/03 05:21:36;;;;;;;10.70;7.87;;;9.70;99.90;;;;;;5010203;28;20228;-69
2024/02/03 05:24:01;;;;;;;9.43;6.77;;;9.60;99.90;;;;;;5021549;28;20435;-69
2024/02/03 05:26:27;;;;;;;7.93;6.70;;;9.70;99.90;;;;;;5017328;28;20421;-69
2024/02/03 05:28:52;;;;;;;8.40;7.30;;;9.60;99.90;;;;;;5018772;28;20224;-70
2024/02/03 05:31:21;;;;;;;9.93;7.43;;;9.50;99.90;;;;;;5014459;28;20177;-69
2024/02/03 05:33:47;;;;;;;8.70;6.93;;;9.40;99.90;;;;;;5013434;28;20852;-68
2024/02/03 05:36:13;;;;;;;8.07;7.23;;;9.50;99.90;;;;;;5013602;28;20423;-68
2024/02/03 05:38:38;;;;;;;13.23;8.20;;;9.50;99.90;;;;;;5017168;28;20187;-68
2024/02/03 05:41:06;;;;;;;8.83;6.97;;;9.50;99.90;;;;;;5014494;28;20204;-69
2024/02/03 05:43:32;;;;;;;7.97;6.60;;;9.50;99.90;;;;;;5017140;28;20200;-68
2024/02/03 05:45:57;;;;;;;10.97;7.10;;;9.50;99.90;;;;;;5012613;28;20439;-68
2024/02/03 05:48:23;;;;;;;8.50;7.10;;;9.50;99.90;;;;;;5013339;28;20231;-68
2024/02/03 05:50:48;;;;;;;7.93;6.30;;;9.50;99.90;;;;;;5012459;28;20173;-68
2024/02/03 05:53:14;;;;;;;8.37;6.73;;;9.50;99.90;;;;;;5013469;28;20193;-68
2024/02/03 05:55:39;;;;;;;7.47;6.67;;;9.50;99.90;;;;;;5016424;28;20180;-68
2024/02/03 05:58:05;;;;;;;7.90;6.60;;;9.50;99.90;;;;;;5011341;28;20180;-68
2024/02/03 06:00:31;;;;;;;7.60;6.17;;;9.40;99.90;;;;;;5009366;28;20228;-68
2024/02/03 06:02:58;;;;;;;7.70;6.20;;;9.40;99.90;;;;;;5014340;28;20177;-68
2024/02/03 06:05:24;;;;;;;8.60;5.73;;;9.40;99.90;;;;;;5015398;28;20446;-68
2024/02/03 06:07:49;;;;;;;15.03;5.80;;;9.40;99.90;;;;;;5016429;28;20761;-68
2024/02/03 06:10:15;;;;;;;8.70;6.03;;;9.40;99.90;;;;;;5014700;28;20213;-68
2024/02/03 06:12:41;;;;;;;6.60;5.17;;;9.40;99.90;;;;;;5014263;28;20177;-68
2024/02/03 06:15:06;;;;;;;8.10;5.80;;;9.30;99.90;;;;;;5016326;28;20207;-68
2024/02/03 06:17:32;;;;;;;7.43;5.87;;;9.40;99.90;;;;;;5011960;28;20583;-68
2024/02/03 06:19:57;;;;;;;7.87;5.10;;;9.30;99.90;;;;;;5016354;28;20683;-68
2024/02/03 06:22:23;;;;;;;6.43;5.17;;;9.40;99.90;;;;;;5017223;28;20189;-69
2024/02/03 06:24:49;;;;;;;8.23;5.40;;;9.40;99.90;;;;;;5020871;28;20200;-68
2024/02/03 06:27:14;;;;;;;6.43;5.13;;;9.30;99.90;;;;;;5016863;28;20185;-68
2024/02/03 06:29:40;;;;;;;5.07;4.40;;;9.20;99.90;;;;;;5018108;28;20995;-68
2024/02/03 06:32:06;;;;;;;6.63;5.33;;;9.30;99.90;;;;;;5015923;28;20670;-68
2024/02/03 06:34:31;;;;;;;7.20;5.23;;;9.40;99.90;;;;;;5017928;28;20266;-68
2024/02/03 06:36:57;;;;;;;5.20;4.27;;;9.40;99.90;;;;;;5016361;28;20181;-68
2024/02/03 06:39:22;;;;;;;6.60;5.30;;;9.30;99.90;;;;;;5017358;28;20191;-68
2024/02/03 06:41:48;;;;;;;6.20;4.60;;;9.30;99.90;;;;;;5013052;28;20200;-68
2024/02/03 06:44:14;;;;;;;8.40;5.03;;;9.30;99.90;;;;;;5015049;28;20194;-68
2024/02/03 06:46:39;;;;;;;7.63;4.90;;;9.30;99.90;;;;;;5015069;28;20248;-69
2024/02/03 06:49:05;;;;;;;9.00;5.03;;;9.30;99.90;;;;;;5009566;28;20177;-68
2024/02/03 06:51:30;;;;;;;6.73;5.50;;;9.20;99.90;;;;;;5016650;28;20250;-68
2024/02/03 06:53:56;;;;;;;5.53;4.33;;;9.30;99.90;;;;;;5011681;28;20204;-68
2024/02/03 06:56:21;;;;;;;5.60;4.60;;;9.30;99.90;;;;;;5013383;28;20193;-69
2024/02/03 06:58:47;;;;;;;6.70;5.00;;;9.20;99.90;;;;;;5016388;28;20188;-68
2024/02/03 07:01:13;;;;;;;7.23;5.50;;;9.20;99.90;;;;;;5011592;28;20795;-68
2024/02/03 07:03:39;;;;;;;6.77;5.23;;;9.10;99.90;;;;;;5012265;28;20228;-68
2024/02/03 07:06:05;;;;;;;8.00;5.07;;;9.10;99.90;;;;;;5008442;28;20444;-68
2024/02/03 07:08:30;;;;;;;7.50;6.00;;;9.00;99.90;;;;;;5016905;28;20499;-68
2024/02/03 07:10:56;;;;;;;7.03;5.47;;;8.90;99.90;;;;;;5013222;28;20185;-68
2024/02/03 07:13:22;;;;;;;7.90;4.30;;;8.90;99.90;;;;;;5018424;28;20188;-68
2024/02/03 07:15:48;;;;;;;6.60;5.00;;;8.90;99.90;;;;;;5010987;28;20276;-68
2024/02/03 07:18:14;;;;;;;6.83;4.90;;;8.80;99.90;;;;;;5011296;28;20435;-68
2024/02/03 07:20:39;;;;;;;7.00;5.30;;;8.90;99.90;;;;;;5008907;28;20455;-68
2024/02/03 07:23:05;;;;;;;8.00;5.10;;;8.90;99.90;;;;;;5013962;28;20173;-68
2024/02/03 07:25:31;;;;;;;7.03;5.70;;;8.90;99.90;;;;;;5014502;28;20267;-68
2024/02/03 07:27:57;;;;;;;7.00;4.80;;;8.80;99.90;;;;;;5017099;28;20546;-69
2024/02/03 07:30:23;;;;;;;5.47;3.97;;;8.80;99.90;;;;;;5015776;28;20435;-68
2024/02/03 07:32:48;;;;;;;5.83;4.50;;;8.80;99.90;;;;;;5011998;28;20181;-68
2024/02/03 07:35:14;;;;;;;5.87;4.20;;;8.80;99.90;;;;;;5013471;28;20205;-69
2024/02/03 07:37:39;;;;;;;6.10;4.40;;;8.80;99.90;;;;;;5011186;28;20209;-69
2024/02/03 07:40:06;;;;;;;5.30;4.43;;;8.80;99.90;;;;;;5014148;28;20189;-68
2024/02/03 07:42:32;;;;;;;5.33;4.23;;;8.80;99.90;;;;;;5011767;28;20173;-68
2024/02/03 07:44:58;;;;;;;5.63;4.53;;;8.70;99.90;;;;;;5017311;28;20420;-68
2024/02/03 07:47:24;;;;;;;6.07;4.70;;;8.60;99.90;;;;;;5014554;28;20423;-68
2024/02/03 07:49:50;;;;;;;7.40;5.13;;;8.70;99.90;;;;;;5013882;28;20182;-68
2024/02/03 07:52:15;;;;;;;6.93;5.00;;;8.60;99.90;;;;;;5017170;28;20532;-68
2024/02/03 07:54:41;;;;;;;5.13;4.23;;;8.60;99.90;;;;;;5012429;28;20317;-68
2024/02/03 07:57:06;;;;;;;5.27;4.10;;;8.70;99.90;;;;;;5013712;28;20589;-68
2024/02/03 07:59:32;;;;;;;7.23;4.53;;;8.70;99.90;;;;;;5012452;28;20189;-69
2024/02/03 08:01:58;;;;;;;5.67;4.20;;;8.60;99.90;;;;;;5013880;28;20215;-68
2024/02/03 08:04:23;;;;;;;5.00;4.30;;;8.70;99.90;;;;;;5016855;28;20208;-68
2024/02/03 08:06:49;;;;;;;6.33;5.10;;;8.70;99.90;;;;;;5012778;28;20659;-68
2024/02/03 08:09:14;;;;;;;5.27;4.03;;;8.70;99.90;;;;;;5019313;28;20172;-68
2024/02/03 08:11:40;;;;;;;6.40;4.50;;;8.70;99.90;;;;;;5016842;28;20215;-68
2024/02/03 08:14:06;;;;;;;4.77;4.10;;;8.80;99.90;;;;;;5015297;28;20204;-68
2024/02/03 08:16:31;;;;;;;5.50;4.40;;;8.80;99.90;;;;;;5009687;28;20216;-68
2024/02/03 08:18:57;;;;;;;5.43;3.83;;;8.90;99.90;;;;;;5016268;28;20239;-68
2024/02/03 08:21:22;;;;;;;5.13;3.73;;;9.00;99.90;;;;;;5025842;28;20670;-68
2024/02/03 08:23:48;;;;;;;6.40;3.43;;;9.00;99.90;;;;;;5014581;28;20207;-68
2024/02/03 08:26:16;;;;;;;4.40;3.07;;;9.00;99.90;;;;;;5011567;28;20205;-68
2024/02/03 08:28:42;;;;;;;4.40;2.87;;;9.10;99.90;;;;;;5016304;28;20525;-69
2024/02/03 08:31:07;;;;;;;4.40;3.30;;;9.20;99.90;;;;;;5021121;28;20503;-69
2024/02/03 08:33:33;;;;;;;5.73;3.40;;;9.20;99.90;;;;;;5018758;28;20250;-68
2024/02/03 08:35:59;;;;;;;4.70;3.37;;;9.40;99.90;;;;;;5017902;28;20197;-68
2024/02/03 08:38:25;;;;;;;3.00;2.43;;;9.40;99.90;;;;;;5019036;28;20185;-69
2024/02/03 08:40:50;;;;;;;4.40;2.57;;;9.40;99.90;;;;;;5019758;28;21343;-68
2024/02/03 08:43:16;;;;;;;3.17;2.40;;;9.40;99.90;;;;;;5021284;28;20661;-69
2024/02/03 08:45:45;;;;;;;6.27;3.20;;;9.40;99.90;;;;;;5020248;28;20181;-69
2024/02/03 08:48:10;;;;;;;5.37;2.83;;;9.50;99.90;;;;;;5019866;28;20652;-69
2024/02/03 08:50:36;;;;;;;7.33;2.77;;;9.50;99.90;;;;;;5010911;28;20477;-69
2024/02/03 08:53:02;;;;;;;3.70;2.50;;;9.50;99.90;;;;;;5013027;28;20447;-69
2024/02/03 08:55:28;;;;;;;3.97;2.80;;;9.40;99.90;;;;;;5013892;28;20211;-69
2024/02/03 08:57:55;;;;;;;6.33;3.73;;;9.50;99.90;;;;;;5009823;28;20240;-69
2024/02/03 09:00:24;;;;;;;8.67;3.03;;;9.50;99.90;;;;;;5018655;28;20462;-68
2024/02/03 09:02:49;;;;;;;4.47;2.93;;;9.50;99.90;;;;;;5015486;28;20412;-70
2024/02/03 09:05:16;;;;;;;4.80;2.60;;;9.60;99.90;;;;;;5016116;28;20443;-68
2024/02/03 09:07:46;;;;;;;5.07;3.80;;;9.50;99.90;;;;;;5020615;28;20185;-68
2024/02/03 09:10:12;;;;;;;4.90;3.93;;;9.60;99.90;;;;;;5017423;28;20419;-69
2024/02/03 09:12:37;;;;;;;5.37;4.27;;;9.60;99.90;;;;;;5015214;28;20415;-70
2024/02/03 09:15:03;;;;;;;5.40;3.80;;;9.60;99.90;;;;;;5015631;28;20193;-68
2024/02/03 09:17:29;;;;;;;5.60;4.27;;;9.70;99.90;;;;;;5020967;28;20257;-68
2024/02/03 09:19:54;;;;;;;5.87;4.47;;;9.70;99.90;;;;;;5019145;28;20451;-68
2024/02/03 09:22:20;;;;;;;6.37;4.60;;;9.60;99.90;;;;;;5020258;28;20662;-69
2024/02/03 09:24:45;;;;;;;5.90;4.80;;;9.60;99.90;;;;;;5018210;28;20286;-69
2024/02/03 09:27:11;;;;;;;5.30;3.53;;;9.60;99.90;;;;;;5014919;28;20212;-69
2024/02/03 09:29:40;;;;;;;4.70;3.87;;;9.50;99.90;;;;;;5021260;28;20210;-70
2024/02/03 09:32:09;;;;;;;5.50;4.43;;;9.50;99.90;;;;;;5014389;28;20185;-69
2024/02/03 09:34:35;;;;;;;4.87;4.20;;;9.60;99.90;;;;;;5022761;28;20454;-70
2024/02/03 09:37:01;;;;;;;5.23;4.60;;;9.60;99.90;;;;;;5014868;28;20927;-70
2024/02/03 09:39:26;;;;;;;6.00;5.10;;;9.70;99.90;;;;;;5013923;28;20207;-70
2024/02/03 09:41:55;;;;;;;8.30;5.73;;;9.70;99.90;;;;;;5013114;28;20462;-70
2024/02/03 09:44:21;;;;;;;6.10;5.07;;;9.80;99.90;;;;;;5018327;28;20624;-70
2024/02/03 09:46:48;;;;;;;8.73;6.00;;;9.90;99.90;;;;;;5012085;28;20419;-69
2024/02/03 09:49:14;;;;;;;8.20;5.77;;;9.90;99.90;;;;;;5015355;28;20431;-70
2024/02/03 09:51:39;;;;;;;6.27;5.10;;;9.90;99.90;;;;;;5012580;28;21034;-69
2024/02/03 09:54:05;;;;;;;8.83;6.37;;;9.80;99.90;;;;;;5013188;28;20200;-69
2024/02/03 09:56:31;;;;;;;8.30;5.80;;;9.80;99.90;;;;;;5014379;28;20209;-69
2024/02/03 09:58:56;;;;;;;8.27;5.93;;;9.80;99.90;;;;;;5020388;28;20431;-69
2024/02/03 10:01:22;;;;;;;6.97;5.03;;;9.70;99.90;;;;;;5013553;28;20204;-70
2024/02/03 10:03:58;;;;;;;7.70;5.73;;;9.80;99.90;;;;;;5021694;28;20283;-69
2024/02/03 10:06:23;;;;;;;6.50;5.60;;;9.70;99.90;;;;;;5010733;28;20180;-69
2024/02/03 10:08:53;;;;;;;6.90;5.63;;;9.80;99.90;;;;;;5011678;28;20420;-68
2024/02/03 10:11:19;;;;;;;7.30;6.23;;;9.80;99.90;;;;;;5017608;28;20506;-68
2024/02/03 10:14:07;;;;;;;8.47;5.83;;;9.80;99.90;;;;;;5014794;28;20458;-68
2024/02/03 10:16:43;;;;;;;7.33;5.10;;;9.80;99.90;;;;;;5009380;28;20444;-69
2024/02/03 10:19:09;;;;;;;6.37;5.30;;;9.90;99.90;;;;;;5015494;28;20426;-69
2024/02/03 10:21:34;;;;;;;6.63;5.00;;;9.90;99.90;;;;;;5011069;28;20464;-70
2024/02/03 10:24:00;;;;;;;5.70;4.60;;;9.90;99.90;;;;;;5014695;28;20196;-70
2024/02/03 10:26:26;;;;;;;6.97;5.40;;;9.90;99.90;;;;;;5015219;28;20188;-69
2024/02/03 10:28:51;;;;;;;5.20;4.00;;;9.90;99.90;;;;;;5015631;28;20192;-68
2024/02/03 10:31:17;;;;;;;5.00;3.93;;;10.00;99.90;;;;;;5015931;28;20181;-68
2024/02/03 10:33:45;;;;;;;4.80;3.60;;;10.10;99.90;;;;;;5018536;28;20204;-68
2024/02/03 10:36:11;;;;;;;6.03;3.33;;;10.10;99.90;;;;;;5016287;28;20176;-68
2024/02/03 10:38:36;;;;;;;4.60;3.47;;;10.20;99.90;;;;;;5012855;28;20868;-69
2024/02/03 10:41:05;;;;;;;4.07;3.20;;;10.20;99.90;;;;;;5014835;28;20595;-68
2024/02/03 10:43:34;;;;;;;3.70;3.00;;;10.20;99.90;;;;;;5018542;28;20199;-68
2024/02/03 10:46:04;;;;;;;5.17;3.67;;;10.20;99.90;;;;;;5010773;28;20455;-68
2024/02/03 10:48:33;;;;;;;5.70;3.93;;;10.30;99.90;;;;;;5013612;28;20435;-69
2024/02/03 10:51:06;;;;;;;4.30;3.70;;;10.40;99.90;;;;;;5013404;28;20455;-68
2024/02/03 10:53:41;;;;;;;3.83;3.40;;;10.40;99.90;;;;;;5011254;28;20432;-68
2024/02/03 10:56:11;;;;;;;3.40;2.70;;;10.40;99.90;;;;;;5010621;28;20412;-69
2024/02/03 10:58:42;;;;;;;5.13;3.70;;;10.40;99.90;;;;;;5014792;28;20443;-69
2024/02/03 11:01:11;;;;;;;4.07;2.87;;;10.50;99.90;;;;;;5005475;28;20985;-69
2024/02/03 11:03:40;;;;;;;4.60;2.93;;;10.60;99.90;;;;;;5011995;28;20973;-68
2024/02/03 11:06:06;;;;;;;4.27;2.60;;;10.50;99.90;;;;;;5010833;28;20431;-68
2024/02/03 11:08:33;;;;;;;5.50;2.80;;;10.50;99.90;;;;;;5022208;28;20411;-68
2024/02/03 11:10:58;;;;;;;3.73;2.73;;;10.50;99.90;;;;;;5015746;28;20773;-68
2024/02/03 11:13:27;;;;;;;3.13;2.40;;;10.40;99.90;;;;;;5020710;28;20466;-68
2024/02/03 11:16:00;;;;;;;3.70;2.87;;;10.40;99.90;;;;;;5005009;28;20197;-68
2024/02/03 11:18:26;;;;;;;3.57;2.67;;;10.40;99.90;;;;;;5008919;28;20435;-68
2024/02/03 11:21:10;;;;;;;3.63;2.70;;;10.40;99.90;;;;;;5006479;28;20487;-68
2024/02/03 11:23:36;;;;;;;4.40;3.13;;;10.40;99.90;;;;;;5014089;28;21223;-68
2024/02/03 11:26:03;;;;;;;3.30;2.37;;;10.30;99.90;;;;;;5007704;28;20522;-68
2024/02/03 11:28:33;;;;;;;3.20;2.40;;;10.40;99.90;;;;;;5013478;28;20512;-68
2024/02/03 11:31:04;;;;;;;3.80;3.00;;;10.40;99.90;;;;;;5013232;28;20186;-68
2024/02/03 11:33:40;;;;;;;6.03;2.93;;;10.50;99.90;;;;;;5016242;28;20504;-68
2024/02/03 11:36:08;;;;;;;6.70;3.07;;;10.60;99.90;;;;;;5018376;28;20671;-69
2024/02/03 11:38:33;;;;;;;3.90;2.73;;;10.80;99.90;;;;;;5015531;28;20847;-68
2024/02/03 11:41:00;;;;;;;4.00;3.10;;;10.70;99.90;;;;;;5015794;28;20472;-69
2024/02/03 11:43:26;;;;;;;3.73;3.07;;;10.80;99.90;;;;;;5014993;28;20258;-69
2024/02/03 11:45:58;;;;;;;6.33;3.67;;;10.70;99.90;;;;;;5021361;28;20439;-68
2024/02/03 11:48:24;;;;;;;4.00;3.03;;;10.80;99.90;;;;;;5018690;28;20593;-69
2024/02/03 11:50:50;;;;;;;5.13;3.60;;;10.80;99.90;;;;;;5016212;28;20783;-69
2024/02/03 11:53:26;;;;;;;5.10;3.57;;;10.80;99.90;;;;;;5011436;28;20419;-68
2024/02/03 11:55:53;;;;;;;4.40;3.97;;;10.70;99.90;;;;;;5006102;28;20436;-68
2024/02/03 11:58:20;;;;;;;8.37;3.93;;;10.70;99.90;;;;;;5016249;28;20515;-68
2024/02/03 12:00:46;;;;;;;5.30;4.47;;;10.70;99.90;;;;;;5019179;28;20463;-68
2024/02/03 12:03:12;;;;;;;5.50;3.50;;;10.60;99.90;;;;;;5010251;28;20432;-69
2024/02/03 12:05:38;;;;;;;4.60;3.77;;;10.60;99.90;;;;;;5008287;28;20447;-68
2024/02/03 12:08:05;;;;;;;7.47;4.33;;;10.60;99.90;;;;;;5014220;28;20436;-68
2024/02/03 12:10:32;;;;;;;4.87;4.00;;;10.50;99.90;;;;;;5011580;28;20423;-68
2024/02/03 12:13:03;;;;;;;5.53;3.93;;;10.70;99.90;;;;;;5015628;28;20419;-68
2024/02/03 12:15:29;;;;;;;4.20;3.80;;;10.60;99.90;;;;;;5010795;28;20458;-69
2024/02/03 12:18:00;;;;;;;4.30;3.60;;;10.70;99.90;;;;;;5012444;28;20482;-69
2024/02/03 12:20:26;;;;;;;6.50;4.33;;;10.80;99.90;;;;;;5016174;28;20200;-68
2024/02/03 12:22:52;;;;;;;5.87;4.33;;;10.60;99.90;;;;;;5012892;28;20843;-69
2024/02/03 12:25:18;;;;;;;4.80;3.80;;;10.70;99.90;;;;;;5013812;28;20204;-68
2024/02/03 12:27:44;;;;;;;4.87;3.73;;;10.60;99.90;;;;;;5013574;28;20431;-69
2024/02/03 12:30:15;;;;;;;4.80;3.57;;;10.60;99.90;;;;;;5012245;28;20194;-69
2024/02/03 12:32:41;;;;;;;5.57;4.47;;;10.60;99.90;;;;;;5016401;28;20951;-69
2024/02/03 12:35:07;;;;;;;5.37;4.10;;;10.60;99.90;;;;;;5015958;28;20538;-69
2024/02/03 12:37:33;;;;;;;5.57;3.70;;;10.60;99.90;;;;;;5016730;28;20272;-69
2024/02/03 12:39:58;;;;;;;5.17;4.63;;;10.60;99.90;;;;;;5017818;28;20511;-69
2024/02/03 12:42:25;;;;;;;7.03;4.60;;;10.70;99.90;;;;;;5015016;28;20213;-69
2024/02/03 12:44:51;;;;;;;3.90;3.50;;;10.70;99.90;;;;;;5016054;28;20207;-69
2024/02/03 12:47:16;;;;;;;4.90;4.10;;;10.70;99.90;;;;;;5016598;28;20418;-69